createdAt,value
2023-11-25T00:01:29.419Z,4.18
2023-11-25T00:04:31.377Z,2.03
2023-11-25T00:07:34.525Z,3.00
2023-11-25T00:10:36.425Z,2.47
2023-11-25T00:13:38.260Z,1.85
2023-11-25T00:16:40.219Z,3.50
2023-11-25T00:19:42.121Z,1.80
2023-11-25T00:22:43.994Z,3.00
2023-11-25T00:25:45.870Z,4.88
2023-11-25T00:28:47.725Z,3.85
2023-11-25T00:31:50.378Z,5.37
2023-11-25T00:34:52.377Z,2.60
2023-11-25T00:37:54.255Z,2.15
2023-11-25T00:40:56.041Z,4.80
2023-11-25T00:43:57.844Z,2.88
2023-11-25T00:46:59.843Z,2.60
2023-11-25T00:50:01.900Z,4.30
2023-11-25T00:53:04.186Z,2.03
2023-11-25T00:56:07.401Z,2.00
2023-11-25T00:59:09.328Z,3.95
2023-11-25T01:02:11.247Z,2.67
2023-11-25T01:05:13.303Z,3.00
2023-11-25T01:08:15.151Z,2.70
2023-11-25T01:11:18.028Z,3.60
2023-11-25T01:14:19.842Z,6.47
2023-11-25T01:17:21.636Z,2.10
2023-11-25T01:20:24.845Z,6.43
2023-11-25T01:23:26.663Z,2.30
2023-11-25T01:26:28.488Z,3.00
2023-11-25T01:29:30.289Z,2.90
2023-11-25T01:32:32.592Z,4.13
2023-11-25T01:35:34.596Z,4.23
2023-11-25T01:38:36.972Z,3.72
2023-11-25T01:41:38.930Z,3.10
2023-11-25T01:44:40.679Z,5.97
2023-11-25T01:47:43.193Z,3.17
2023-11-25T01:50:46.954Z,4.70
2023-11-25T01:53:48.922Z,4.53
2023-11-25T01:56:52.898Z,3.88
2023-11-25T01:59:54.936Z,3.42
2023-11-25T02:02:58.720Z,8.73
2023-11-25T02:06:00.616Z,8.63
2023-11-25T02:09:02.596Z,9.43
2023-11-25T02:12:04.406Z,8.48
2023-11-25T02:15:12.154Z,2.30
2023-11-25T02:18:14.047Z,9.20
2023-11-25T02:21:15.879Z,4.00
2023-11-25T02:24:17.726Z,4.57
2023-11-25T02:27:19.476Z,2.42
2023-11-25T02:30:25.035Z,2.50
2023-11-25T02:33:32.300Z,2.27
2023-11-25T02:36:34.965Z,3.60
2023-11-25T02:39:38.828Z,1.98
2023-11-25T02:42:40.731Z,4.10
2023-11-25T02:45:43.768Z,3.78
2023-11-25T02:48:45.817Z,2.20
2023-11-25T02:51:48.364Z,2.43
2023-11-25T02:54:50.766Z,3.92
2023-11-25T02:57:53.432Z,4.47
2023-11-25T03:01:02.983Z,3.90
2023-11-25T03:04:06.845Z,2.83
2023-11-25T03:07:08.810Z,3.37
2023-11-25T03:10:11.179Z,3.90
2023-11-25T03:13:13.558Z,3.08
2023-11-25T03:16:16.015Z,4.13
2023-11-25T03:19:19.345Z,3.47
2023-11-25T03:22:21.322Z,4.07
2023-11-25T03:25:25.838Z,3.08
2023-11-25T03:28:27.840Z,4.25
2023-11-25T03:31:29.871Z,5.20
2023-11-25T03:34:31.711Z,2.93
2023-11-25T03:37:33.968Z,3.83
2023-11-25T03:40:35.886Z,3.78
2023-11-25T03:43:37.861Z,5.45
2023-11-25T03:46:43.156Z,3.53
2023-11-25T03:49:46.361Z,4.27
2023-11-25T03:52:48.399Z,9.27
2023-11-25T03:55:50.236Z,5.95
2023-11-25T03:58:52.135Z,13.02
2023-11-25T04:01:54.103Z,6.80
2023-11-25T04:04:55.974Z,6.33
2023-11-25T04:07:57.752Z,6.50
2023-11-25T04:11:07.395Z,5.88
2023-11-25T04:14:10.592Z,5.13
2023-11-25T04:17:13.448Z,5.40
2023-11-25T04:20:15.693Z,4.13
2023-11-25T04:23:17.956Z,8.37
2023-11-25T04:26:21.172Z,4.85
2023-11-25T04:29:22.998Z,5.03
2023-11-25T04:32:26.129Z,4.90
2023-11-25T04:35:27.939Z,5.87
2023-11-25T04:38:29.924Z,4.73
2023-11-25T04:41:32.108Z,4.78
2023-11-25T04:44:33.924Z,7.28
2023-11-25T04:47:36.316Z,6.95
2023-11-25T04:50:38.158Z,9.20
2023-11-25T04:53:39.958Z,8.43
2023-11-25T04:56:41.705Z,8.82
2023-11-25T04:59:43.694Z,8.30
2023-11-25T05:02:45.503Z,10.27
2023-11-25T05:05:48.116Z,12.83
2023-11-25T05:08:49.930Z,8.97
2023-11-25T05:11:51.874Z,15.45
2023-11-25T05:14:53.683Z,12.48
2023-11-25T05:17:55.649Z,14.50
2023-11-25T05:20:58.137Z,13.50
2023-11-25T05:23:59.974Z,11.17
2023-11-25T05:27:02.062Z,12.25
2023-11-25T05:30:04.387Z,4.85
2023-11-25T05:33:06.855Z,5.10
2023-11-25T05:36:08.883Z,7.93
2023-11-25T05:39:14.140Z,6.20
2023-11-25T05:42:19.913Z,7.15
2023-11-25T05:45:25.202Z,8.88
2023-11-25T05:48:28.528Z,5.50
2023-11-25T05:51:33.836Z,4.47
2023-11-25T05:54:35.593Z,4.03
2023-11-25T05:57:37.385Z,5.32
2023-11-25T06:00:39.142Z,4.90
2023-11-25T06:03:43.660Z,4.05
2023-11-25T06:06:45.423Z,6.33
2023-11-25T06:09:47.306Z,5.03
2023-11-25T06:12:49.127Z,5.38
2023-11-25T06:15:53.057Z,4.30
2023-11-25T06:18:55.969Z,5.10
2023-11-25T06:21:59.578Z,4.70
2023-11-25T06:25:01.751Z,8.07
2023-11-25T06:28:03.713Z,5.15
2023-11-25T06:31:05.679Z,7.72
2023-11-25T06:34:07.580Z,8.38
2023-11-25T06:37:09.508Z,5.70
2023-11-25T06:40:14.695Z,9.53
2023-11-25T06:43:16.853Z,28.30
2023-11-25T06:46:18.672Z,26.90
2023-11-25T06:49:20.642Z,15.60
2023-11-25T06:52:23.571Z,13.75
2023-11-25T06:55:27.699Z,7.43
2023-11-25T06:58:29.538Z,8.05
2023-11-25T07:01:31.814Z,5.30
2023-11-25T07:04:33.852Z,5.95
2023-11-25T07:07:35.742Z,5.60
2023-11-25T07:10:37.785Z,6.20
2023-11-25T07:13:39.818Z,4.70
2023-11-25T07:16:41.695Z,4.57
2023-11-25T07:19:43.948Z,3.75
2023-11-25T07:22:46.140Z,5.80
2023-11-25T07:25:48.463Z,7.30
2023-11-25T07:28:50.404Z,6.35
2023-11-25T07:31:52.987Z,7.57
2023-11-25T07:34:54.810Z,3.88
2023-11-25T07:37:56.783Z,4.07
2023-11-25T07:40:58.599Z,1.10
2023-11-25T07:44:00.395Z,9.82
2023-11-25T07:47:05.022Z,1.67
2023-11-25T07:50:07.143Z,3.58
2023-11-25T07:53:09.030Z,4.07
2023-11-25T07:56:11.546Z,2.70
2023-11-25T07:59:13.364Z,3.55
2023-11-25T08:02:15.361Z,6.60
2023-11-25T08:05:23.764Z,5.28
2023-11-25T08:08:26.716Z,4.67
2023-11-25T08:11:29.213Z,6.80
2023-11-25T08:14:33.838Z,3.17
2023-11-25T08:17:35.784Z,6.63
2023-11-25T08:20:37.868Z,5.97
2023-11-25T08:23:39.636Z,4.30
2023-11-25T08:26:41.490Z,3.40
2023-11-25T08:29:43.285Z,3.05
2023-11-25T08:32:45.550Z,5.07
2023-11-25T08:35:47.362Z,2.17
2023-11-25T08:38:52.562Z,3.70
2023-11-25T08:41:55.223Z,5.87
2023-11-25T08:44:57.099Z,3.42
2023-11-25T08:47:59.863Z,3.17
2023-11-25T08:51:01.740Z,7.22
2023-11-25T08:54:03.868Z,4.43
2023-11-25T08:57:08.902Z,4.00
2023-11-25T09:00:20.880Z,2.67
2023-11-25T09:03:24.382Z,4.35
2023-11-25T09:06:26.205Z,3.45
2023-11-25T09:09:27.980Z,2.33
2023-11-25T09:12:29.820Z,3.53
2023-11-25T09:15:39.171Z,8.38
2023-11-25T09:18:43.340Z,6.72
2023-11-25T09:21:46.199Z,3.10
2023-11-25T09:24:48.157Z,5.53
2023-11-25T09:27:51.540Z,4.47
2023-11-25T09:30:53.360Z,4.47
2023-11-25T09:33:55.349Z,8.30
2023-11-25T09:36:57.269Z,6.43
2023-11-25T09:39:59.070Z,5.87
2023-11-25T09:43:00.947Z,5.27
2023-11-25T09:46:03.186Z,9.02
2023-11-25T09:49:05.131Z,4.95
2023-11-25T09:52:10.546Z,7.95
2023-11-25T09:55:13.039Z,5.63
2023-11-25T09:58:18.976Z,5.80
2023-11-25T10:05:12.606Z,6.07
2023-11-25T10:08:14.388Z,5.68
2023-11-25T10:11:18.268Z,6.57
2023-11-25T10:14:20.086Z,4.93
2023-11-25T10:17:25.193Z,7.97
2023-11-25T10:20:27.230Z,7.80
2023-11-25T10:23:29.315Z,7.40
2023-11-25T10:26:31.567Z,4.88
2023-11-25T10:29:33.439Z,3.97
2023-11-25T10:32:36.474Z,2.72
2023-11-25T10:35:38.753Z,9.25
2023-11-25T10:38:40.716Z,8.20
2023-11-25T10:41:42.710Z,6.90
2023-11-25T10:44:45.313Z,9.03
2023-11-25T10:47:47.846Z,7.93
2023-11-25T10:50:49.749Z,6.43
2023-11-25T10:53:51.546Z,10.10
2023-11-25T10:56:54.260Z,9.57
2023-11-25T10:59:59.038Z,10.87
2023-11-25T11:03:05.200Z,9.80
2023-11-25T11:06:09.906Z,7.68
2023-11-25T11:09:17.685Z,11.63
2023-11-25T11:12:40.038Z,13.10
2023-11-25T11:15:43.595Z,10.57
2023-11-25T11:18:46.210Z,10.25
2023-11-25T11:21:50.509Z,6.50
2023-11-25T11:24:59.789Z,12.10
2023-11-25T11:28:04.732Z,11.50
2023-11-25T11:31:25.257Z,10.43
2023-11-25T11:34:34.017Z,10.45
2023-11-25T11:37:38.580Z,12.07
2023-11-25T11:40:40.526Z,12.43
2023-11-25T11:43:42.465Z,11.75
2023-11-25T11:46:44.846Z,13.97
2023-11-25T11:49:47.917Z,7.82
2023-11-25T11:53:01.963Z,10.70
2023-11-25T11:56:04.047Z,13.20
2023-11-25T11:59:07.327Z,12.17
2023-11-25T12:02:09.243Z,11.60
2023-11-25T12:05:11.946Z,14.05
2023-11-25T12:08:13.871Z,11.38
2023-11-25T12:11:17.201Z,17.13
2023-11-25T12:14:19.156Z,17.97
2023-11-25T12:17:21.250Z,20.20
2023-11-25T12:20:23.941Z,18.73
2023-11-25T12:23:36.821Z,21.05
2023-11-25T12:26:51.134Z,23.17
2023-11-25T12:29:52.854Z,25.37
2023-11-25T12:32:54.879Z,18.63
2023-11-25T12:35:56.760Z,17.80
2023-11-25T12:38:58.578Z,20.35
2023-11-25T12:42:02.579Z,13.98
2023-11-25T12:45:04.520Z,9.90
2023-11-25T12:48:09.323Z,6.83
2023-11-25T12:51:14.348Z,8.32
2023-11-25T12:54:16.617Z,5.75
2023-11-25T12:57:19.268Z,5.20
2023-11-25T13:00:21.182Z,8.23
2023-11-25T13:03:24.158Z,3.60
2023-11-25T13:06:26.287Z,6.03
2023-11-25T13:09:32.788Z,6.65
2023-11-25T13:12:35.018Z,5.53
2023-11-25T13:15:36.764Z,4.60
2023-11-25T13:18:38.461Z,5.07
2023-11-25T13:21:41.571Z,3.22
2023-11-25T13:24:46.589Z,3.13
2023-11-25T13:27:49.060Z,3.30
2023-11-25T13:30:52.229Z,3.20
2023-11-25T13:33:56.954Z,3.23
2023-11-25T13:36:59.812Z,1.65
2023-11-25T13:40:01.631Z,2.13
2023-11-25T13:43:05.418Z,2.50
2023-11-25T13:46:07.505Z,4.57
2023-11-25T13:49:09.508Z,3.20
2023-11-25T13:52:11.343Z,13.35
2023-11-25T13:55:17.988Z,1.90
2023-11-25T13:58:20.054Z,2.45
2023-11-25T14:01:22.353Z,2.20
2023-11-25T14:04:25.364Z,2.37
2023-11-25T14:07:27.168Z,1.80
2023-11-25T14:10:28.996Z,4.05
2023-11-25T14:13:32.869Z,2.05
2023-11-25T14:16:35.349Z,3.70
2023-11-25T14:19:37.233Z,1.20
2023-11-25T14:22:39.741Z,2.70
2023-11-25T14:25:41.594Z,1.98
2023-11-25T14:28:43.421Z,2.42
2023-11-25T14:31:46.203Z,2.63
2023-11-25T14:34:48.094Z,2.27
2023-11-25T14:37:49.999Z,2.55
2023-11-25T14:40:51.870Z,2.20
2023-11-25T14:43:54.627Z,4.28
2023-11-25T14:46:57.461Z,2.73
2023-11-25T14:49:59.644Z,2.70
2023-11-25T14:53:01.458Z,3.78
2023-11-25T14:56:03.485Z,2.67
2023-11-25T14:59:06.539Z,1.95
2023-11-25T15:02:08.550Z,3.43
2023-11-25T15:05:13.483Z,2.37
2023-11-25T15:08:15.294Z,4.00
2023-11-25T15:11:17.097Z,8.48
2023-11-25T15:14:19.212Z,5.95
2023-11-25T15:17:21.097Z,5.40
2023-11-25T15:20:23.997Z,3.43
2023-11-25T15:23:25.865Z,2.70
2023-11-25T15:26:28.092Z,4.50
2023-11-25T15:29:30.847Z,4.30
2023-11-25T15:32:32.760Z,2.23
2023-11-25T15:35:35.496Z,3.97
2023-11-25T15:38:37.474Z,2.40
2023-11-25T15:41:39.354Z,2.35
2023-11-25T15:44:41.959Z,2.90
2023-11-25T15:47:43.826Z,3.53
2023-11-25T15:50:45.795Z,2.33
2023-11-25T15:53:47.557Z,6.00
2023-11-25T15:56:49.299Z,3.10
2023-11-25T15:59:51.396Z,1.83
2023-11-25T16:02:53.407Z,2.87
2023-11-25T16:05:56.166Z,4.93
2023-11-25T16:08:58.034Z,3.95
2023-11-25T16:11:59.787Z,1.92
2023-11-25T16:15:01.539Z,2.30
2023-11-25T16:18:04.473Z,4.03
2023-11-25T16:21:06.830Z,2.50
2023-11-25T16:24:09.003Z,5.65
2023-11-25T16:27:11.089Z,6.57
2023-11-25T16:30:16.283Z,3.67
2023-11-25T16:33:18.202Z,2.10
2023-11-25T16:36:20.352Z,3.87
2023-11-25T16:39:23.899Z,5.07
2023-11-25T16:42:25.754Z,10.90
2023-11-25T16:45:27.487Z,20.42
2023-11-25T16:48:39.261Z,9.23
2023-11-25T16:51:53.457Z,13.80
2023-11-25T16:54:55.258Z,8.02
2023-11-25T16:57:57.460Z,9.23
2023-11-25T17:01:01.147Z,13.02
2023-11-25T17:04:03.416Z,10.40
2023-11-25T17:07:10.059Z,13.60
2023-11-25T17:10:11.807Z,15.52
2023-11-25T17:13:15.254Z,7.00
2023-11-25T17:16:21.040Z,10.23
2023-11-25T17:19:23.682Z,5.73
2023-11-25T17:22:25.416Z,6.50
2023-11-25T17:25:27.904Z,18.60
2023-11-25T17:28:30.760Z,12.02
2023-11-25T17:31:32.740Z,16.27
2023-11-25T17:34:34.861Z,11.10
2023-11-25T17:37:37.190Z,12.83
2023-11-25T17:40:39.024Z,18.67
2023-11-25T17:43:41.092Z,2.55
2023-11-25T17:46:43.610Z,4.00
2023-11-25T17:49:47.487Z,5.27
2023-11-25T17:52:53.788Z,3.33
2023-11-25T17:56:00.251Z,3.75
2023-11-25T17:59:02.670Z,4.47
2023-11-25T18:02:04.719Z,3.60
2023-11-25T18:05:10.075Z,3.77
2023-11-25T18:08:11.951Z,6.27
2023-11-25T18:11:14.181Z,10.00
2023-11-25T18:14:16.224Z,8.05
2023-11-25T18:17:18.126Z,6.35
2023-11-25T18:20:20.653Z,9.03
2023-11-25T18:23:22.815Z,6.87
2023-11-25T18:26:24.954Z,7.75
2023-11-25T18:29:26.974Z,6.25
2023-11-25T18:32:29.496Z,4.53
2023-11-25T18:35:32.101Z,3.43
2023-11-25T18:38:34.018Z,7.37
2023-11-25T18:41:36.420Z,6.85
2023-11-25T18:44:38.277Z,10.40
2023-11-25T18:47:40.539Z,13.77
2023-11-25T18:50:42.675Z,9.67
2023-11-25T18:53:45.083Z,12.00
2023-11-25T18:56:47.101Z,9.38
2023-11-25T18:59:48.928Z,6.78
2023-11-25T19:02:51.191Z,6.55
2023-11-25T19:05:53.377Z,6.10
2023-11-25T19:08:55.267Z,8.17
2023-11-25T19:11:57.605Z,6.40
2023-11-25T19:15:00.298Z,4.50
2023-11-25T19:18:02.162Z,7.35
2023-11-25T19:21:05.472Z,7.30
2023-11-25T19:24:07.617Z,4.03
2023-11-25T19:27:09.545Z,3.70
2023-11-25T19:30:11.631Z,6.45
2023-11-25T19:33:13.546Z,4.25
2023-11-25T19:36:15.834Z,5.88
2023-11-25T19:39:18.207Z,7.57
2023-11-25T19:42:20.029Z,7.00
2023-11-25T19:45:22.078Z,6.30
2023-11-25T19:48:23.908Z,5.93
2023-11-25T19:51:26.280Z,6.67
2023-11-25T19:54:28.086Z,7.87
2023-11-25T19:57:30.271Z,13.45
2023-11-25T20:00:33.117Z,46.63
2023-11-25T20:03:37.334Z,30.05
2023-11-25T20:06:39.196Z,17.02
2023-11-25T20:09:41.086Z,11.90
2023-11-25T20:12:43.832Z,6.30
2023-11-25T20:15:45.886Z,6.35
2023-11-25T20:18:49.462Z,5.45
2023-11-25T20:21:51.247Z,5.80
2023-11-25T20:24:53.204Z,5.67
2023-11-25T20:27:55.028Z,5.43
2023-11-25T20:30:57.199Z,3.33
2023-11-25T20:33:59.257Z,2.20
2023-11-25T20:37:02.903Z,1.47
2023-11-25T20:40:05.673Z,3.83
2023-11-25T20:43:07.433Z,4.55
2023-11-25T20:46:09.532Z,8.32
2023-11-25T20:49:11.545Z,3.22
2023-11-25T20:52:13.507Z,6.03
2023-11-25T20:55:15.477Z,5.57
2023-11-25T20:58:17.537Z,4.07
2023-11-25T21:01:19.322Z,5.00
2023-11-25T21:04:21.296Z,5.18
2023-11-25T21:07:23.676Z,4.10
2023-11-25T21:10:25.548Z,6.67
2023-11-25T21:13:27.336Z,10.68
2023-11-25T21:16:29.218Z,12.70
2023-11-25T21:19:31.137Z,6.45
2023-11-25T21:22:32.946Z,5.23
2023-11-25T21:25:34.708Z,5.90
2023-11-25T21:28:36.473Z,5.35
2023-11-25T21:31:38.291Z,3.10
2023-11-25T21:34:40.155Z,6.32
2023-11-25T21:37:42.112Z,4.23
2023-11-25T21:40:44.077Z,4.93
2023-11-25T21:43:45.856Z,3.33
2023-11-25T21:46:47.617Z,4.55
2023-11-25T21:49:49.414Z,4.10
2023-11-25T21:52:51.440Z,3.60
2023-11-25T21:55:53.304Z,5.23
2023-11-25T21:58:55.125Z,4.57
2023-11-25T22:01:56.980Z,3.83
2023-11-25T22:04:58.821Z,5.05
2023-11-25T22:08:01.500Z,4.97
2023-11-25T22:11:04.235Z,2.87
2023-11-25T22:14:06.067Z,7.55
2023-11-25T22:17:07.889Z,5.20
2023-11-25T22:20:10.071Z,4.75
2023-11-25T22:23:15.105Z,4.70
2023-11-25T22:26:26.938Z,6.27
2023-11-25T22:29:28.652Z,2.53
2023-11-25T22:32:30.522Z,3.17
2023-11-25T22:35:41.072Z,3.38
2023-11-25T22:38:49.420Z,3.33
2023-11-25T22:41:51.165Z,3.37
2023-11-25T22:44:53.002Z,5.03
2023-11-25T22:47:55.040Z,2.88
2023-11-25T22:50:56.895Z,5.20
2023-11-25T22:53:58.707Z,3.77
2023-11-25T22:57:01.472Z,3.03
2023-11-25T23:00:05.846Z,4.30
2023-11-25T23:03:07.785Z,6.32
2023-11-25T23:06:11.299Z,4.05
2023-11-25T23:09:13.719Z,4.83
2023-11-25T23:12:15.519Z,5.67
2023-11-25T23:15:17.291Z,2.45
2023-11-25T23:18:19.081Z,4.22
2023-11-25T23:21:20.991Z,2.25
2023-11-25T23:24:22.776Z,4.00
2023-11-25T23:27:24.680Z,3.47
2023-11-25T23:30:26.404Z,4.75
2023-11-25T23:33:28.510Z,3.30
2023-11-25T23:36:30.313Z,2.88
2023-11-25T23:39:32.520Z,4.03
2023-11-25T23:42:34.265Z,3.40
2023-11-25T23:45:36.425Z,5.25
2023-11-25T23:48:38.388Z,3.20
2023-11-25T23:51:40.190Z,4.55
2023-11-25T23:54:43.263Z,5.67
2023-11-25T23:57:45.079Z,3.97
